Time;durP1;ratioP1;P1;durP2;ratioP2;P2;SDS_P1;SDS_P2;PMS_P1;PMS_P2;Temp;Humidity;BMP_temperature;BMP_pressure;BME280_temperature;BME280_humidity;BME280_pressure;Samples;Min_cycle;Max_cycle;Signal;HPM_P1;HPM_P2
2021/05/26 00:02:17;;;;;;;5.55;3.67;;;;;;;7.66;99.97;100988.22;4980026;28;20050;-75
2021/05/26 00:04:42;;;;;;;4.80;3.28;;;;;;;7.63;100.00;100975.41;4981046;28;20516;-74
2021/05/26 00:07:08;;;;;;;3.53;3.10;;;;;;;7.61;100.00;100978.16;4958892;28;20069;-75
2021/05/26 00:09:33;;;;;;;4.72;3.10;;;;;;;7.63;100.00;100978.88;4982716;28;20049;-75
2021/05/26 00:11:59;;;;;;;5.35;3.30;;;;;;;7.67;100.00;100971.63;4975396;28;20057;-75
2021/05/26 00:14:25;;;;;;;6.13;3.40;;;;;;;7.68;100.00;100975.88;4983318;28;20046;-76
2021/05/26 00:16:50;;;;;;;3.55;3.25;;;;;;;7.74;100.00;100968.41;4981302;28;20057;-75
2021/05/26 00:19:16;;;;;;;6.53;3.53;;;;;;;7.85;99.68;100964.09;4961869;28;20404;-76
2021/05/26 00:21:42;;;;;;;6.75;3.30;;;;;;;7.80;100.00;100964.47;4963852;28;20066;-75
2021/05/26 00:24:08;;;;;;;4.80;3.47;;;;;;;7.71;100.00;100968.63;4957381;28;20059;-75
2021/05/26 00:26:33;;;;;;;9.48;3.80;;;;;;;7.64;100.00;100964.03;4977610;28;20417;-74
2021/05/26 00:28:59;;;;;;;7.05;3.72;;;;;;;7.57;100.00;100964.53;4975418;28;20046;-76
2021/05/26 00:31:25;;;;;;;4.15;3.47;;;;;;;7.66;100.00;100956.91;4982259;28;20041;-76
2021/05/26 00:33:52;;;;;;;4.82;3.33;;;;;;;7.60;100.00;100953.00;4983363;28;20038;-76
2021/05/26 00:36:18;;;;;;;3.42;3.13;;;;;;;7.62;100.00;100951.09;4937331;28;20077;-76
2021/05/26 00:38:43;;;;;;;7.32;3.30;;;;;;;7.73;100.00;100956.28;4962384;28;20706;-76
2021/05/26 00:41:10;;;;;;;4.30;3.60;;;;;;;7.87;100.00;100951.72;4977674;28;20134;-75
2021/05/26 00:43:36;;;;;;;5.00;3.90;;;;;;;7.92;99.25;100953.03;4979872;28;20052;-76
2021/05/26 00:46:02;;;;;;;4.55;3.80;;;;;;;8.05;98.08;100949.44;4967213;28;20419;-75
2021/05/26 00:48:28;;;;;;;4.50;4.10;;;;;;;8.05;98.21;100954.66;4966665;28;20105;-77
2021/05/26 00:50:54;;;;;;;6.20;4.63;;;;;;;8.08;97.56;100944.78;4977775;28;20444;-76
2021/05/26 00:53:24;;;;;;;6.97;4.47;;;;;;;8.04;97.87;100951.19;4941061;28;20050;-76
2021/05/26 00:55:49;;;;;;;5.63;4.50;;;;;;;8.09;97.93;100943.81;4946383;28;20039;-76
2021/05/26 00:58:15;;;;;;;7.13;4.88;;;;;;;8.04;97.83;100942.53;4966014;28;20420;-77
2021/05/26 01:00:41;;;;;;;8.70;5.18;;;;;;;8.13;98.02;100944.41;4969340;28;20100;-77
2021/05/26 01:03:13;;;;;;;8.45;5.55;;;;;;;8.08;98.49;100941.31;4986041;28;20046;-76
2021/05/26 01:05:41;;;;;;;6.53;5.57;;;;;;;8.08;98.59;100939.56;4967065;28;20046;-76
2021/05/26 01:08:07;;;;;;;6.47;5.72;;;;;;;8.11;98.08;100941.91;4975437;28;20056;-76
2021/05/26 01:10:34;;;;;;;6.40;5.80;;;;;;;8.16;97.76;100939.75;4963178;28;20763;-76
2021/05/26 01:13:11;;;;;;;9.65;6.07;;;;;;;8.17;98.27;100936.19;4976777;28;20047;-76
2021/05/26 01:15:39;;;;;;;11.43;6.00;;;;;;;8.18;98.70;100937.00;4966800;28;20122;-77
2021/05/26 01:18:27;;;;;;;9.27;6.40;;;;;;;8.21;97.96;100936.75;4944929;28;20035;-76
2021/05/26 01:20:59;;;;;;;9.00;6.60;;;;;;;8.11;98.77;100943.69;4994450;28;20128;-76
2021/05/26 01:23:27;;;;;;;7.10;6.40;;;;;;;8.12;99.00;100946.19;4979269;28;29631;-77
2021/05/26 01:26:01;;;;;;;7.85;6.85;;;;;;;8.07;99.75;100935.28;4987412;28;20050;-76
2021/05/26 01:28:28;;;;;;;7.93;7.18;;;;;;;8.12;98.45;100934.91;4986777;28;20058;-76
2021/05/26 01:31:00;;;;;;;8.00;7.15;;;;;;;8.19;98.29;100934.28;4977100;28;20524;-76
2021/05/26 01:33:30;;;;;;;7.97;7.20;;;;;;;8.21;98.21;100935.91;4988397;28;20156;-76
2021/05/26 01:35:59;;;;;;;8.70;7.78;;;;;;;8.19;97.94;100931.66;4967616;28;20070;-76
2021/05/26 01:38:25;;;;;;;9.45;7.72;;;;;;;8.20;99.00;100935.09;4979163;28;20046;-77
2021/05/26 01:40:58;;;;;;;8.40;7.60;;;;;;;8.22;98.74;100927.16;4972488;28;20777;-77
2021/05/26 01:43:35;;;;;;;10.07;7.93;;;;;;;8.19;98.37;100931.66;4975090;28;20047;-75
2021/05/26 01:46:02;;;;;;;11.32;7.95;;;;;;;8.17;98.71;100922.28;4967382;28;20484;-76
2021/05/26 01:48:31;;;;;;;9.43;8.30;;;;;;;8.12;99.59;100916.63;4979868;28;20064;-76
2021/05/26 01:50:57;;;;;;;9.40;8.25;;;;;;;8.12;99.83;100927.91;4985990;28;20057;-75
2021/05/26 01:53:23;;;;;;;12.30;9.65;;;;;;;8.08;100.00;100923.88;4963407;28;20042;-77
2021/05/26 01:55:49;;;;;;;12.63;8.05;;;;;;;8.06;100.00;100923.19;5003699;28;20480;-77
2021/05/26 01:58:17;;;;;;;11.88;7.82;;;;;;;7.98;100.00;100918.56;4971450;28;20500;-77
2021/05/26 02:00:46;;;;;;;12.57;7.80;;;;;;;7.98;100.00;100925.56;4971142;28;20039;-76
2021/05/26 02:03:13;;;;;;;10.18;7.82;;;;;;;7.98;100.00;100925.56;4990897;28;20051;-76
2021/05/26 02:05:39;;;;;;;8.80;7.90;;;;;;;8.03;100.00;100923.41;4984158;28;20064;-76
2021/05/26 02:08:05;;;;;;;12.55;8.65;;;;;;;7.97;100.00;100918.72;4970137;28;20097;-76
2021/05/26 02:13:16;;;;;;;16.88;11.02;;;;;;;8.15;100.00;100914.56;4979443;28;20189;-75
2021/05/26 02:15:43;;;;;;;17.25;11.45;;;;;;;8.29;100.00;100916.06;4985192;28;20106;-76
2021/05/26 02:18:09;;;;;;;13.52;11.23;;;;;;;8.27;100.00;100911.88;4975564;28;20038;-76
2021/05/26 02:20:36;;;;;;;17.00;12.30;;;;;;;8.26;100.00;100908.44;4982210;28;20034;-75
2021/05/26 02:23:02;;;;;;;12.88;11.55;;;;;;;8.28;100.00;100913.56;5004844;28;20049;-75
2021/05/26 02:25:27;;;;;;;12.70;11.38;;;;;;;8.26;100.00;100915.47;4973665;28;20060;-76
2021/05/26 02:27:54;;;;;;;14.85;12.95;;;;;;;8.22;100.00;100906.25;4988030;28;20077;-75
2021/05/26 02:30:23;;;;;;;12.32;10.57;;;;;;;8.21;100.00;100910.59;4985168;28;20033;-76
2021/05/26 02:32:49;;;;;;;12.75;11.35;;;;;;;8.18;100.00;100908.28;4996881;28;20038;-75
2021/05/26 02:35:16;;;;;;;11.52;10.30;;;;;;;8.21;100.00;100902.78;4986661;28;20790;-75
2021/05/26 02:37:43;;;;;;;12.50;11.02;;;;;;;8.21;100.00;100904.56;4989188;28;20038;-74
2021/05/26 02:40:10;;;;;;;11.40;9.57;;;;;;;8.24;100.00;100902.53;4972228;28;20443;-75
2021/05/26 02:42:36;;;;;;;15.20;11.25;;;;;;;8.22;100.00;100906.25;4972735;28;20046;-75
2021/05/26 02:45:04;;;;;;;12.05;10.20;;;;;;;8.16;100.00;100902.34;4989579;28;20049;-75
2021/05/26 02:47:29;;;;;;;13.35;11.63;;;;;;;8.13;100.00;100892.13;4983962;28;20039;-76
2021/05/26 02:49:58;;;;;;;14.65;11.05;;;;;;;8.15;100.00;100893.66;4968411;28;20049;-76
2021/05/26 02:52:23;;;;;;;14.93;11.60;;;;;;;8.10;100.00;100890.63;4972428;28;20092;-76
2021/05/26 02:54:56;;;;;;;;;;;;;;;8.18;100.00;100895.22;4984244;28;20045;-75
2021/05/26 02:57:24;;;;;;;13.50;10.15;;;;;;;8.17;100.00;100889.16;4987544;28;20052;-76
2021/05/26 02:59:50;;;;;;;13.68;11.45;;;;;;;8.11;100.00;100894.06;4980077;28;20122;-75
2021/05/26 03:02:34;;;;;;;11.57;10.30;;;;;;;8.04;100.00;100892.91;4976823;28;20046;-76
2021/05/26 03:05:08;;;;;;;13.95;10.18;;;;;;;8.13;100.00;100895.56;4967507;28;20814;-76
2021/05/26 03:07:34;;;;;;;12.98;10.60;;;;;;;8.07;100.00;100892.66;4953012;28;20042;-76
2021/05/26 03:10:04;;;;;;;12.57;10.73;;;;;;;8.10;100.00;100897.59;4968488;28;20133;-75
2021/05/26 03:12:30;;;;;;;13.05;9.77;;;;;;;8.15;100.00;100898.06;4969480;28;20428;-76
2021/05/26 03:14:59;;;;;;;20.45;10.30;;;;;;;8.05;100.00;100900.63;5001042;28;20058;-76
2021/05/26 03:17:28;;;;;;;14.23;10.23;;;;;;;8.04;100.00;100898.13;4966661;28;20058;-76
2021/05/26 03:19:55;;;;;;;15.80;10.45;;;;;;;8.06;100.00;100894.44;4996993;28;20045;-76
2021/05/26 03:22:47;;;;;;;11.88;10.13;;;;;;;8.07;100.00;100897.88;4993304;28;20038;-75
2021/05/26 03:25:31;;;;;;;14.95;10.98;;;;;;;8.07;100.00;100896.09;4979319;28;20047;-75
2021/05/26 03:28:08;;;;;;;12.80;11.38;;;;;;;8.07;100.00;100895.25;4971493;28;20078;-75
2021/05/26 03:30:34;;;;;;;13.32;11.45;;;;;;;8.05;100.00;100898.00;4968933;28;20062;-76
2021/05/26 03:33:03;;;;;;;17.63;12.27;;;;;;;8.08;100.00;100894.28;4998484;28;20454;-76
2021/05/26 03:35:29;;;;;;;13.45;11.88;;;;;;;8.07;100.00;100887.44;4966230;28;20415;-75
2021/05/26 03:37:56;;;;;;;17.75;12.52;;;;;;;8.10;100.00;100884.53;4956850;28;20536;-75
2021/05/26 03:40:24;;;;;;;17.55;12.20;;;;;;;8.06;100.00;100884.00;4966960;28;20047;-76
2021/05/26 03:42:55;;;;;;;15.82;12.20;;;;;;;8.06;100.00;100884.00;4981015;28;20050;-76
2021/05/26 03:45:33;;;;;;;19.70;13.35;;;;;;;8.22;100.00;100888.75;4969234;28;20050;-76
2021/05/26 03:47:59;;;;;;;22.25;13.45;;;;;;;8.19;100.00;100882.03;4967860;28;20182;-76
2021/05/26 03:50:27;;;;;;;20.35;13.80;;;;;;;8.22;100.00;100875.69;4972089;28;20055;-76
2021/05/26 03:52:54;;;;;;;17.70;13.80;;;;;;;8.24;100.00;100873.78;4979978;28;20104;-76
2021/05/26 03:55:23;;;;;;;19.55;13.68;;;;;;;8.20;100.00;100872.38;4981803;28;20045;-77
2021/05/26 03:57:50;;;;;;;18.00;13.40;;;;;;;8.15;100.00;100870.16;4962367;28;20053;-76
2021/05/26 04:00:19;;;;;;;19.42;12.98;;;;;;;8.08;100.00;100879.47;4951481;28;20045;-76
2021/05/26 04:02:59;;;;;;;;;;;;;;;8.04;100.00;100877.22;4988725;28;20066;-76
2021/05/26 04:05:26;;;;;;;19.73;12.85;;;;;;;7.97;100.00;100879.53;4955437;28;20012;-76
2021/05/26 04:07:52;;;;;;;19.95;12.60;;;;;;;7.90;100.00;100875.75;4972019;28;20042;-77
2021/05/26 04:10:17;;;;;;;16.42;12.90;;;;;;;7.80;100.00;100884.34;4982707;28;20046;-76
2021/05/26 04:12:44;;;;;;;21.02;12.85;;;;;;;7.83;100.00;100883.25;4978276;28;20109;-77
2021/05/26 04:15:24;;;;;;;21.33;14.35;;;;;;;8.02;100.00;100886.97;4973172;28;20045;-77
2021/05/26 04:18:22;;;;;;;19.58;13.48;;;;;;;8.23;100.00;100887.81;4975495;28;20045;-76
2021/05/26 04:20:48;;;;;;;22.23;15.15;;;;;;;8.34;100.00;100881.69;4996012;28;20050;-77
2021/05/26 04:23:13;;;;;;;18.73;14.10;;;;;;;8.46;99.61;100883.31;4969508;28;20054;-77
2021/05/26 04:25:51;;;;;;;17.23;13.68;;;;;;;8.51;97.44;100880.28;4983281;28;20045;-76
2021/05/26 04:28:22;;;;;;;19.98;14.02;;;;;;;8.62;97.90;100882.81;5020995;28;20046;-77
2021/05/26 04:30:48;;;;;;;20.55;13.32;;;;;;;8.62;97.89;100880.22;4988202;28;20434;-77
2021/05/26 04:33:16;;;;;;;15.10;12.55;;;;;;;8.58;97.83;100874.41;4967453;28;20069;-76
2021/05/26 04:35:43;;;;;;;17.92;13.32;;;;;;;8.62;96.85;100867.13;4983760;28;20061;-76
2021/05/26 04:38:08;;;;;;;18.38;13.30;;;;;;;8.64;97.21;100867.00;5000121;28;20034;-77
2021/05/26 04:40:34;;;;;;;17.33;12.73;;;;;;;8.64;96.95;100864.41;4984333;28;20049;-77
2021/05/26 04:43:00;;;;;;;16.58;12.70;;;;;;;8.77;96.77;100862.38;4935177;28;21513;-77
2021/05/26 04:45:25;;;;;;;18.08;12.50;;;;;;;8.83;96.27;100861.03;4968467;28;20039;-77
2021/05/26 04:47:51;;;;;;;17.38;12.57;;;;;;;8.87;95.33;100857.19;4955800;28;20057;-77
2021/05/26 04:50:16;;;;;;;16.20;11.85;;;;;;;8.88;95.62;100862.28;4974246;28;20095;-77
2021/05/26 04:52:42;;;;;;;15.93;12.00;;;;;;;8.86;94.28;100858.16;4976829;28;20042;-76
2021/05/26 04:55:08;;;;;;;19.23;12.40;;;;;;;8.76;96.50;100860.75;4970751;28;20062;-77
2021/05/26 04:57:34;;;;;;;20.33;12.95;;;;;;;8.79;96.57;100863.06;4969531;28;20045;-77
2021/05/26 04:59:59;;;;;;;15.27;11.95;;;;;;;8.83;95.61;100854.00;4959440;28;20046;-76
2021/05/26 05:02:25;;;;;;;16.67;12.07;;;;;;;8.87;96.34;100858.03;4966510;28;20041;-77
2021/05/26 05:04:50;;;;;;;19.65;12.95;;;;;;;8.91;95.98;100856.81;4970173;28;20045;-76
2021/05/26 05:07:16;;;;;;;16.65;10.82;;;;;;;9.01;95.28;100863.84;4979892;28;20074;-77
2021/05/26 05:09:41;;;;;;;12.75;10.23;;;;;;;9.02;96.49;100862.88;4989135;28;20038;-76
2021/05/26 05:12:07;;;;;;;12.57;10.27;;;;;;;9.06;96.92;100875.59;4986248;28;20047;-77
2021/05/26 05:14:33;;;;;;;12.55;10.25;;;;;;;9.03;95.29;100870.59;4953291;28;20058;-77
2021/05/26 05:16:58;;;;;;;11.27;9.52;;;;;;;9.01;94.74;100863.84;4983051;28;20043;-77
2021/05/26 05:19:24;;;;;;;14.88;10.32;;;;;;;8.95;96.14;100865.22;4983090;28;20042;-77
2021/05/26 05:21:49;;;;;;;13.75;10.85;;;;;;;8.93;96.35;100867.97;4972411;28;20030;-78
2021/05/26 05:24:15;;;;;;;18.33;11.93;;;;;;;8.96;95.64;100865.06;4991437;28;20062;-78
2021/05/26 05:26:40;;;;;;;15.65;12.02;;;;;;;9.05;95.13;100862.63;4965657;28;20404;-77
2021/05/26 05:29:06;;;;;;;16.83;12.27;;;;;;;9.15;94.50;100863.47;4974850;28;20034;-77
2021/05/26 05:31:32;;;;;;;19.92;12.60;;;;;;;9.15;92.13;100858.22;4986486;28;20038;-77
2021/05/26 05:33:58;;;;;;;14.63;12.15;;;;;;;9.21;92.92;100868.19;4973074;28;20039;-77
2021/05/26 05:36:24;;;;;;;17.48;11.55;;;;;;;9.14;94.44;100859.22;4976298;28;20054;-77
2021/05/26 05:38:49;;;;;;;16.17;12.73;;;;;;;9.15;93.99;100856.47;4988874;28;20124;-77
2021/05/26 05:41:15;;;;;;;15.30;13.18;;;;;;;9.22;94.62;100855.91;4991149;28;20050;-77
2021/05/26 05:43:40;;;;;;;17.92;12.38;;;;;;;9.34;93.37;100858.28;4994298;28;20042;-76
2021/05/26 05:46:06;;;;;;;16.77;11.50;;;;;;;9.42;91.08;100851.53;4998680;28;20042;-77
2021/05/26 05:48:32;;;;;;;14.48;11.45;;;;;;;9.48;92.04;100857.06;4990177;28;20104;-76
2021/05/26 05:50:57;;;;;;;12.27;10.95;;;;;;;9.54;91.72;100853.88;4979557;28;20045;-77
2021/05/26 05:53:23;;;;;;;14.45;11.68;;;;;;;9.53;93.79;100854.84;4971399;28;20035;-76
2021/05/26 05:55:48;;;;;;;13.82;10.90;;;;;;;9.59;90.41;100848.25;4968177;28;20146;-77
2021/05/26 05:58:25;;;;;;;14.23;10.32;;;;;;;9.75;90.22;100847.69;4972985;28;20456;-77
2021/05/26 06:00:51;;;;;;;13.18;10.23;;;;;;;9.94;91.06;100846.84;4993215;28;20074;-77
2021/05/26 06:03:16;;;;;;;13.50;9.23;;;;;;;10.14;87.36;100847.66;4955516;28;20452;-76
2021/05/26 06:05:42;;;;;;;12.55;9.50;;;;;;;10.16;87.12;100839.66;4985937;28;20057;-77
2021/05/26 06:08:08;;;;;;;11.82;9.82;;;;;;;10.12;88.86;100839.91;4970199;28;20403;-77
2021/05/26 06:10:33;;;;;;;11.98;9.80;;;;;;;10.03;89.52;100839.94;4986696;28;20138;-77
2021/05/26 06:13:00;;;;;;;14.93;9.45;;;;;;;9.97;90.05;100840.50;4948520;28;20133;-77
2021/05/26 06:15:26;;;;;;;14.90;10.52;;;;;;;9.90;90.07;100841.03;4990415;28;20416;-77
2021/05/26 06:17:51;;;;;;;16.30;11.43;;;;;;;9.78;90.62;100841.34;4970122;28;20042;-77
2021/05/26 06:20:17;;;;;;;14.90;11.32;;;;;;;9.79;91.42;100833.34;4979801;28;20528;-77
2021/05/26 06:22:45;;;;;;;13.40;11.32;;;;;;;9.82;90.43;100827.81;4988986;28;20504;-77
2021/05/26 06:25:12;;;;;;;13.23;10.98;;;;;;;10.03;89.72;100832.09;4968335;28;20050;-77
2021/05/26 06:27:38;;;;;;;12.05;10.77;;;;;;;10.19;89.77;100828.84;4971371;28;20133;-76
2021/05/26 06:30:04;;;;;;;13.05;11.20;;;;;;;10.34;90.56;100819.63;4992484;28;20132;-77
2021/05/26 06:32:30;;;;;;;16.10;10.95;;;;;;;10.36;86.36;100822.09;4996398;28;20120;-77
2021/05/26 06:34:55;;;;;;;12.05;10.23;;;;;;;10.40;86.88;100816.44;4971577;28;20034;-77
2021/05/26 06:37:21;;;;;;;16.10;9.82;;;;;;;10.36;86.18;100816.84;4989052;28;20054;-77
2021/05/26 06:39:47;;;;;;;12.80;10.98;;;;;;;10.25;88.77;100823.91;4954404;28;20038;-76
2021/05/26 06:42:13;;;;;;;14.75;11.10;;;;;;;10.14;89.53;100819.63;4940929;28;20125;-77
2021/05/26 06:44:39;;;;;;;14.63;11.10;;;;;;;10.05;90.47;100817.03;4969951;28;20121;-77
2021/05/26 06:47:04;;;;;;;13.13;11.18;;;;;;;9.90;91.10;100814.84;4986629;28;20039;-76
2021/05/26 06:49:31;;;;;;;13.95;11.57;;;;;;;9.79;92.11;100822.03;4971859;28;20101;-75
2021/05/26 06:51:57;;;;;;;12.57;11.02;;;;;;;9.68;93.30;100820.38;4976604;28;20039;-75
2021/05/26 06:54:23;;;;;;;16.90;12.75;;;;;;;9.58;94.33;100824.81;4987583;28;20050;-75
2021/05/26 06:56:49;;;;;;;14.18;11.00;;;;;;;9.40;92.89;100820.25;4963043;28;20053;-75
2021/05/26 06:59:14;;;;;;;15.35;11.50;;;;;;;9.40;95.19;100820.25;4969929;28;20842;-75
2021/05/26 07:01:40;;;;;;;15.43;12.10;;;;;;;9.28;96.32;100824.78;4982571;28;20496;-75
2021/05/26 07:04:06;;;;;;;13.05;10.48;;;;;;;9.21;96.10;100822.84;4982779;28;20061;-76
2021/05/26 07:06:32;;;;;;;9.32;7.43;;;;;;;9.10;95.92;100826.44;4977654;28;20090;-75
2021/05/26 07:08:57;;;;;;;7.07;6.38;;;;;;;8.91;96.14;100824.56;4967712;28;20042;-77
2021/05/26 07:11:23;;;;;;;10.43;5.47;;;;;;;8.75;96.03;100817.22;4968410;28;20647;-75
2021/05/26 07:13:48;;;;;;;9.10;5.63;;;;;;;8.68;96.99;100818.72;4968936;28;20046;-75
2021/05/26 07:16:14;;;;;;;8.88;6.40;;;;;;;8.61;98.01;100812.34;4986917;28;20057;-76
2021/05/26 07:18:46;;;;;;;6.20;4.85;;;;;;;8.60;97.75;100818.56;4982062;28;20061;-76
2021/05/26 07:21:13;;;;;;;16.60;4.72;;;;;;;8.66;98.27;100811.00;4986861;28;20769;-76
2021/05/26 07:23:38;;;;;;;6.25;4.30;;;;;;;8.67;97.94;100806.63;4977439;28;20121;-76
2021/05/26 07:26:04;;;;;;;5.18;4.40;;;;;;;8.73;97.90;100817.38;4952606;28;20078;-76
2021/05/26 07:28:29;;;;;;;5.60;4.90;;;;;;;8.77;97.52;100815.31;4971225;28;20079;-76
2021/05/26 07:30:55;;;;;;;8.70;5.43;;;;;;;8.78;97.20;100819.59;4985406;28;20129;-75
2021/05/26 07:33:21;;;;;;;8.52;5.97;;;;;;;8.83;97.40;100827.03;4987602;28;20046;-76
2021/05/26 07:35:46;;;;;;;10.57;6.00;;;;;;;8.82;98.35;100812.31;4994208;28;20034;-75
2021/05/26 07:38:12;;;;;;;5.97;5.38;;;;;;;8.76;98.02;100806.66;4969317;28;20047;-74
2021/05/26 07:40:39;;;;;;;6.72;5.22;;;;;;;8.61;98.48;100810.59;4970541;28;20049;-75
2021/05/26 07:43:04;;;;;;;7.28;5.03;;;;;;;8.56;98.71;100810.97;4969633;28;20053;-75
2021/05/26 07:45:30;;;;;;;6.50;4.20;;;;;;;8.57;98.88;100811.81;4979849;28;20038;-75
2021/05/26 07:47:55;;;;;;;4.70;4.10;;;;;;;8.52;99.07;100811.38;4990323;28;20108;-76
2021/05/26 07:50:21;;;;;;;7.80;3.88;;;;;;;8.46;98.92;100811.91;4986959;28;20137;-75
2021/05/26 07:52:46;;;;;;;5.05;3.75;;;;;;;8.44;99.26;100798.97;4985529;28;20046;-76
2021/05/26 07:55:13;;;;;;;4.95;4.30;;;;;;;8.50;99.52;100802.84;4979580;28;20046;-76
2021/05/26 07:57:39;;;;;;;6.10;4.85;;;;;;;8.55;99.84;100808.47;5002839;28;20102;-75
2021/05/26 08:00:06;;;;;;;7.88;5.90;;;;;;;8.65;100.00;100805.94;4966994;28;20505;-75
2021/05/26 08:02:38;;;;;;;10.00;6.10;;;;;;;8.98;99.79;100801.31;4970532;28;20043;-74
2021/05/26 08:05:05;;;;;;;7.22;6.20;;;;;;;9.28;97.99;100798.59;4988052;28;20552;-75
2021/05/26 08:07:31;;;;;;;9.10;7.13;;;;;;;9.53;97.31;100794.63;4978728;28;20046;-75
2021/05/26 08:09:56;;;;;;;9.77;8.20;;;;;;;9.74;96.43;100794.47;4985691;28;20049;-76
2021/05/26 08:12:22;;;;;;;13.82;8.95;;;;;;;9.86;96.01;100795.13;4988866;28;20736;-74
2021/05/26 08:14:47;;;;;;;16.70;10.00;;;;;;;9.83;95.79;100784.97;4987535;28;20121;-75
2021/05/26 08:17:12;;;;;;;13.25;11.82;;;;;;;9.86;95.49;100783.84;4986964;28;20125;-75
2021/05/26 08:19:38;;;;;;;19.80;14.63;;;;;;;9.78;95.53;100791.59;4969446;28;20100;-75
2021/05/26 08:22:03;;;;;;;21.42;15.32;;;;;;;9.67;96.07;100787.31;4979782;28;20042;-74
2021/05/26 08:24:29;;;;;;;26.77;18.33;;;;;;;9.69;96.90;100785.38;4976861;28;20039;-76
2021/05/26 08:26:54;;;;;;;29.83;18.23;;;;;;;9.95;95.82;100780.38;4969138;28;20054;-76
2021/05/26 08:29:20;;;;;;;28.23;19.55;;;;;;;10.18;95.76;100782.66;4975036;28;20051;-75
2021/05/26 08:31:46;;;;;;;27.48;18.50;;;;;;;10.16;95.26;100782.81;4989414;28;20126;-75
2021/05/26 08:34:12;;;;;;;34.30;19.02;;;;;;;10.16;95.83;100781.97;4977904;28;20038;-76
2021/05/26 08:36:38;;;;;;;25.75;18.15;;;;;;;10.26;96.58;100788.00;5001538;28;20061;-76
2021/05/26 08:39:05;;;;;;;27.83;17.70;;;;;;;10.30;96.47;100771.91;4979797;28;20115;-76
2021/05/26 08:41:31;;;;;;;26.38;16.70;;;;;;;10.51;95.66;100769.03;4987537;28;20101;-77
2021/05/26 08:43:57;;;;;;;20.38;15.48;;;;;;;10.68;93.80;100772.69;4987220;28;20042;-76
2021/05/26 08:46:23;;;;;;;27.65;16.00;;;;;;;11.37;93.45;100770.41;4977947;28;20043;-76
2021/05/26 08:48:52;;;;;;;25.85;15.25;;;;;;;11.97;91.31;100766.28;4976258;28;20042;-76
2021/05/26 08:51:20;;;;;;;17.73;11.13;;;;;;;12.26;87.74;100758.91;4976999;28;20516;-76
2021/05/26 08:53:45;;;;;;;21.92;12.00;;;;;;;12.24;89.80;100773.16;4988183;28;20141;-76
2021/05/26 08:56:11;;;;;;;21.17;11.27;;;;;;;12.37;85.85;100772.75;4971821;28;20129;-76
2021/05/26 08:58:38;;;;;;;16.30;9.60;;;;;;;12.52;84.19;100765.91;4984004;28;20049;-75
2021/05/26 09:01:04;;;;;;;20.05;11.77;;;;;;;12.88;86.00;100765.69;4971637;28;20109;-76
2021/05/26 09:03:30;;;;;;;18.50;11.25;;;;;;;12.97;85.37;100762.09;4979353;28;20042;-78
2021/05/26 09:05:56;;;;;;;16.15;10.45;;;;;;;13.27;84.24;100765.09;4998942;28;20171;-76
2021/05/26 09:08:23;;;;;;;17.65;9.88;;;;;;;13.48;83.61;100759.38;4985018;28;20109;-76
2021/05/26 09:11:00;;;;;;;12.95;8.77;;;;;;;13.68;83.89;100765.13;4972873;28;20106;-74
2021/05/26 09:13:36;;;;;;;11.32;7.63;;;;;;;13.39;80.12;100765.63;4976754;28;20043;-76
2021/05/26 09:16:07;;;;;;;14.55;8.38;;;;;;;13.29;83.25;100768.38;4986098;28;20053;-75
2021/05/26 09:18:57;;;;;;;10.55;7.57;;;;;;;13.57;81.20;100766.28;4988063;28;21074;-76
2021/05/26 09:21:46;;;;;;;10.60;7.00;;;;;;;13.65;83.30;100765.44;4986352;28;20073;-78
2021/05/26 09:24:21;;;;;;;16.13;7.15;;;;;;;13.63;80.47;100759.53;4983308;28;20034;-76
2021/05/26 09:26:50;;;;;;;13.35;6.32;;;;;;;13.27;79.86;100757.19;4978836;28;20060;-77
2021/05/26 09:29:15;;;;;;;10.75;5.97;;;;;;;12.91;80.86;100754.84;4983499;28;20064;-77
2021/05/26 09:31:41;;;;;;;14.00;6.28;;;;;;;12.72;83.74;100760.41;4982411;28;20050;-77
2021/05/26 09:34:07;;;;;;;13.73;5.90;;;;;;;12.45;82.68;100755.19;4966723;28;20051;-76
2021/05/26 09:36:32;;;;;;;16.23;6.32;;;;;;;12.18;83.02;100761.47;4967390;28;20062;-76
2021/05/26 09:39:00;;;;;;;16.05;6.15;;;;;;;11.92;83.61;100756.22;4968665;28;20186;-76
2021/05/26 09:41:32;;;;;;;13.55;6.65;;;;;;;11.74;84.10;100758.88;4970964;28;20057;-77
2021/05/26 09:44:10;;;;;;;13.85;6.53;;;;;;;11.54;84.40;100768.75;4975358;28;20069;-76
2021/05/26 09:46:40;;;;;;;16.65;6.63;;;;;;;11.16;85.40;100767.28;4979285;28;20526;-75
2021/05/26 09:49:17;;;;;;;13.60;8.20;;;;;;;10.97;90.79;100766.44;4969896;28;20049;-74
2021/05/26 09:51:47;;;;;;;15.48;7.88;;;;;;;10.96;90.47;100772.63;4975875;28;20440;-75
2021/05/26 09:54:21;;;;;;;10.82;7.30;;;;;;;11.13;92.61;100778.88;4969031;28;20043;-75
2021/05/26 09:56:54;;;;;;;12.35;8.18;;;;;;;11.46;92.73;100768.69;4965117;28;20061;-75
2021/05/26 09:59:22;;;;;;;11.43;7.15;;;;;;;11.69;89.73;100771.66;4981594;28;20049;-75
2021/05/26 10:01:54;;;;;;;17.13;7.75;;;;;;;11.83;89.91;100760.59;4975988;28;20053;-75
2021/05/26 10:04:21;;;;;;;14.32;6.38;;;;;;;11.97;87.49;100758.41;4969535;28;20042;-76
2021/05/26 10:06:55;;;;;;;13.73;6.65;;;;;;;12.47;85.57;100757.69;4977261;28;20074;-76
2021/05/26 10:09:32;;;;;;;13.15;6.53;;;;;;;12.68;87.86;100757.25;4973884;28;20049;-76
2021/05/26 10:12:20;;;;;;;14.88;6.15;;;;;;;12.35;84.59;100749.22;4982508;28;20047;-76
2021/05/26 10:14:46;;;;;;;16.65;6.45;;;;;;;12.15;85.24;100748.66;4962700;28;20035;-76
2021/05/26 10:17:19;;;;;;;10.82;5.88;;;;;;;12.11;86.78;100749.09;4984182;28;20038;-76
2021/05/26 10:19:45;;;;;;;12.80;5.70;;;;;;;12.15;88.18;100751.28;4979636;28;20713;-76
2021/05/26 10:22:11;;;;;;;11.73;5.93;;;;;;;12.27;86.25;100752.66;4966025;28;20042;-76
2021/05/26 10:24:37;;;;;;;7.40;5.40;;;;;;;12.40;85.22;100754.84;4963191;28;20089;-76
2021/05/26 10:27:03;;;;;;;10.65;5.13;;;;;;;12.44;83.80;100752.72;4987043;28;20046;-76
2021/05/26 10:29:29;;;;;;;12.10;4.63;;;;;;;12.61;84.78;100750.97;4992805;28;20042;-75
2021/05/26 10:31:57;;;;;;;8.93;4.65;;;;;;;12.81;83.55;100749.72;4959775;28;20416;-76
2021/05/26 10:34:41;;;;;;;10.15;4.28;;;;;;;12.79;82.43;100737.69;4970976;28;20045;-76
2021/05/26 10:37:08;;;;;;;7.88;3.95;;;;;;;12.61;81.08;100743.09;4953415;28;21645;-78
2021/05/26 10:39:34;;;;;;;9.10;3.85;;;;;;;12.99;80.88;100738.22;4996151;28;20133;-76
2021/05/26 10:42:01;;;;;;;6.63;2.90;;;;;;;13.46;77.93;100719.19;4982610;28;20615;-76
2021/05/26 10:45:06;;;;;;;5.40;2.58;;;;;;;13.81;77.38;100728.53;4965344;28;20042;-76
2021/05/26 10:47:43;;;;;;;9.13;2.95;;;;;;;13.59;79.15;100729.22;4960552;28;20047;-75
2021/05/26 10:50:15;;;;;;;7.28;3.00;;;;;;;13.70;76.92;100734.16;4971401;28;20081;-75
2021/05/26 10:52:56;;;;;;;7.90;3.15;;;;;;;14.17;73.53;100719.38;4981104;28;20073;-76
2021/05/26 10:55:37;;;;;;;5.10;2.97;;;;;;;14.56;74.68;100724.66;4969375;28;20144;-76
2021/05/26 10:58:26;;;;;;;9.70;3.28;;;;;;;15.05;70.65;100722.72;4985879;28;20050;-75
2021/05/26 11:00:58;;;;;;;8.13;3.25;;;;;;;14.88;74.48;100722.00;4992537;28;20038;-77
2021/05/26 11:03:27;;;;;;;8.35;3.35;;;;;;;14.69;74.49;100715.34;4970190;28;20681;-75
2021/05/26 11:06:14;;;;;;;6.47;2.90;;;;;;;14.64;70.69;100712.44;4977167;28;20396;-77
2021/05/26 11:11:27;;;;;;;5.07;3.00;;;;;;;15.85;72.50;100706.31;4984373;28;20038;-76
2021/05/26 11:13:59;;;;;;;5.20;2.70;;;;;;;16.15;66.67;100696.56;4968811;28;20069;-77
2021/05/26 11:16:52;;;;;;;5.93;2.75;;;;;;;15.69;66.27;100712.59;4969242;28;20051;-75
2021/05/26 11:19:26;;;;;;;4.07;2.22;;;;;;;15.63;64.80;100704.53;4902440;28;20708;-77
2021/05/26 11:22:00;;;;;;;5.32;2.47;;;;;;;15.39;71.70;100709.09;4982295;28;20049;-76
2021/05/26 11:24:29;;;;;;;8.20;2.63;;;;;;;15.13;68.71;100709.47;4964083;28;20396;-77
2021/05/26 11:26:55;;;;;;;4.45;2.40;;;;;;;14.70;72.43;100704.63;4988878;28;20054;-76
2021/05/26 11:29:30;;;;;;;3.78;2.55;;;;;;;14.14;72.22;100712.59;4981192;28;20046;-77
2021/05/26 11:32:04;;;;;;;7.97;3.08;;;;;;;13.61;73.27;100714.06;4988336;28;20491;-76